ポートビラ・バウアフィールド空港の過去48時間の天気

ポートビラ・バウアフィールド空港 (Bauerfield Efate )

現在時刻: 10/2 02:27 +11 (10/1 15:27 UTC) 以下の時間は現地時間です。

過去48時間のMETAR気象情報
時間 風向 風速(m/s) 視程 気温(℃) 湿度(%) 気圧(hPa) 天気現象
2 02:00 東南東 5 10km以上 23 94 1014
2 01:00 東南東 3 10km以上 23 94 1014 弱い霧雨
2 00:00 2 10km以上 23 89 1015
1 23:00 東南東 5 10km以上 24 83 1015
1 22:00 東南東 3 10km以上 24 83 1016
1 21:00 東南東 5 10km以上 24 83 1016
1 20:00 東南東 3 10km以上 23 89 1015
1 19:00 東南東 4 10km以上 24 83 1015
1 18:00 東南東 6 10km以上 23 89 1014 弱い霧雨
1 17:00 東南東 5 10km以上 24 83 1013 弱い霧雨
1 16:00 東南東 3 10km以上 24 89 1013
1 15:00 東南東 6 10km以上 24 83 1013
1 14:00 東南東 6 10km以上 25 78 1013
1 13:00 南東 5 10km以上 25 83 1014
1 12:00 東南東 7 10km以上 25 78 1014 弱い霧雨
1 11:00 南東 8 10km以上 25 78 1015
1 10:00 南東 8 10km以上 25 74 1015
1 09:00 南東 9 10km以上 25 78 1015
1 08:00 南東 7 10km以上 24 78 1015
1 07:00 東南東 3 10km以上 23 94 1014
NVVV 011500Z 12010KT 9999 BKN018 OVC040 23/22 Q1014 RMK REDZ
NVVV 011400Z 12006KT 9999 -DZ BKN018 23/22 Q1014
NVVV 011300Z 10004KT 9999 BKN020 23/21 Q1015
NVVV 011200Z 12009KT 9999 SCT020 OVC040 24/21 Q1015
NVVV 011100Z 11006KT 9999 SCT020 OVC040 24/21 Q1016
NVVV 011000Z 12010KT 9999 SCT020 OVC040 24/21 Q1016
NVVV 010900Z 11006KT 9999 SCT020 OVC040 23/21 Q1015
NVVV 010800Z 11008KT 9999 SCT020 OVC040 24/21 Q1015
NVVV 010700Z 12011KT 9999 -DZ SCT020 OVC040 23/21 Q1014 INTER 0700/0900 9000 SHRA SCT015 OVC035
NVVV 010600Z 12010KT 9999 -DZ FEW018 SCT020 OVC040 24/21 Q1013
NVVV 010500Z 12006KT 9999 BKN020 OVC040 24/22 Q1013
NVVV 010400Z 12012KT 9999 BKN020 OVC040 24/21 Q1013
NVVV 010300Z 12012KT 9999 BKN020 OVC040 25/21 Q1013
NVVV 010200Z 13010KT 9999 BKN020 OVC040 25/22 Q1014 MK REDZ
NVVV 010100Z 12013KT 9999 -DZ BKN020 OVC040 25/21 Q1014
NVVV 010000Z 13015KT 9999 BKN020 25/21 Q1015
NVVV 302300Z 13016KT 9999 BKN020 25/20 Q1015
NVVV 302200Z 13017KT 9999 BKN020 25/21 Q1015
NVVV 302100Z 13014KT 9999 SCT020 24/20 Q1015
NVVV 302000Z 11006KT 9999 SCT020 BKN040 23/22 Q1014